sensor_id;sensor_type;location;lat;lon;timestamp;pressure;altitude;pressure_sealevel;temperature;humidity
46714;BME280;32445;51.376;10.874;2023-01-31T00:00:44;99655.84;;;5.06;62.16
46714;BME280;32445;51.376;10.874;2023-01-31T00:03:45;99663.59;;;5.10;61.92
46714;BME280;32445;51.376;10.874;2023-01-31T00:06:47;99676.44;;;5.19;61.78
46714;BME280;32445;51.376;10.874;2023-01-31T00:09:50;99675.59;;;5.20;61.51
46714;BME280;32445;51.376;10.874;2023-01-31T00:12:50;99684.16;;;5.16;61.94
46714;BME280;32445;51.376;10.874;2023-01-31T00:15:50;99685.03;;;5.08;62.14
46714;BME280;32445;51.376;10.874;2023-01-31T00:18:51;99684.16;;;5.06;62.20
46714;BME280;32445;51.376;10.874;2023-01-31T00:21:52;99691.03;;;5.00;62.09
46714;BME280;32445;51.376;10.874;2023-01-31T00:24:52;99698.78;;;4.96;62.04
46714;BME280;32445;51.376;10.874;2023-01-31T00:27:53;99685.88;;;4.93;62.35
46714;BME280;32445;51.376;10.874;2023-01-31T00:30:57;99693.59;;;4.93;62.26
46714;BME280;32445;51.376;10.874;2023-01-31T00:33:57;99694.47;;;4.93;62.11
46714;BME280;32445;51.376;10.874;2023-01-31T00:36:58;99702.19;;;4.93;62.28
46714;BME280;32445;51.376;10.874;2023-01-31T00:39:58;99694.47;;;4.92;62.44
46714;BME280;32445;51.376;10.874;2023-01-31T00:42:58;99697.06;;;4.89;62.46
46714;BME280;32445;51.376;10.874;2023-01-31T00:45:59;99694.44;;;4.87;62.69
46714;BME280;32445;51.376;10.874;2023-01-31T00:48:59;99696.19;;;4.88;62.21
46714;BME280;32445;51.376;10.874;2023-01-31T00:52:01;99700.47;;;4.92;62.21
46714;BME280;32445;51.376;10.874;2023-01-31T00:55:01;99691.91;;;4.90;62.20
46714;BME280;32445;51.376;10.874;2023-01-31T00:58:01;99704.75;;;4.93;61.87
46714;BME280;32445;51.376;10.874;2023-01-31T01:01:11;99724.47;;;4.87;62.19
46714;BME280;32445;51.376;10.874;2023-01-31T01:04:12;99733.03;;;4.87;62.19
46714;BME280;32445;51.376;10.874;2023-01-31T01:07:12;99738.19;;;4.84;62.26
46714;BME280;32445;51.376;10.874;2023-01-31T01:10:12;99738.19;;;4.82;61.88
46714;BME280;32445;51.376;10.874;2023-01-31T01:13:13;99739.06;;;4.81;61.70
46714;BME280;32445;51.376;10.874;2023-01-31T01:16:24;99747.63;;;4.77;62.18
46714;BME280;32445;51.376;10.874;2023-01-31T01:19:24;99747.63;;;4.79;61.79
46714;BME280;32445;51.376;10.874;2023-01-31T01:22:25;99752.78;;;4.79;61.60
46714;BME280;32445;51.376;10.874;2023-01-31T01:25:26;99745.91;;;4.78;61.63
46714;BME280;32445;51.376;10.874;2023-01-31T01:28:26;99756.19;;;4.78;61.40
46714;BME280;32445;51.376;10.874;2023-01-31T01:31:27;99747.59;;;4.74;61.17
46714;BME280;32445;51.376;10.874;2023-01-31T01:34:32;99746.75;;;4.71;61.37
46714;BME280;32445;51.376;10.874;2023-01-31T01:37:33;99742.44;;;4.71;61.53
46714;BME280;32445;51.376;10.874;2023-01-31T01:40:37;99745.03;;;4.73;61.28
46714;BME280;32445;51.376;10.874;2023-01-31T01:43:39;99744.19;;;4.78;61.22
46714;BME280;32445;51.376;10.874;2023-01-31T01:46:42;99735.63;;;4.81;61.40
46714;BME280;32445;51.376;10.874;2023-01-31T01:49:46;99740.75;;;4.79;60.82
46714;BME280;32445;51.376;10.874;2023-01-31T01:53:06;99743.34;;;4.72;60.78
46714;BME280;32445;51.376;10.874;2023-01-31T01:56:15;99755.31;;;4.71;60.72
46714;BME280;32445;51.376;10.874;2023-01-31T01:59:20;99763.03;;;4.73;61.07
46714;BME280;32445;51.376;10.874;2023-01-31T02:02:21;99756.19;;;4.73;61.14
46714;BME280;32445;51.376;10.874;2023-01-31T02:05:30;99766.47;;;4.73;61.04
46714;BME280;32445;51.376;10.874;2023-01-31T02:08:33;99770.75;;;4.74;61.07
46714;BME280;32445;51.376;10.874;2023-01-31T02:11:34;99769.91;;;4.75;61.22
46714;BME280;32445;51.376;10.874;2023-01-31T02:14:34;99775.03;;;4.74;61.30
46714;BME280;32445;51.376;10.874;2023-01-31T02:17:35;99769.91;;;4.74;61.04
46714;BME280;32445;51.376;10.874;2023-01-31T02:27:30;99773.31;;;4.73;61.13
46714;BME280;32445;51.376;10.874;2023-01-31T02:31:07;99794.75;;;4.72;60.78
46714;BME280;32445;51.376;10.874;2023-01-31T02:43:53;99808.47;;;4.69;60.53
46714;BME280;32445;51.376;10.874;2023-01-31T02:57:06;99817.91;;;4.72;60.49
46714;BME280;32445;51.376;10.874;2023-01-31T03:00:08;99817.03;;;4.73;59.77
46714;BME280;32445;51.376;10.874;2023-01-31T03:03:16;99817.91;;;4.75;60.21
46714;BME280;32445;51.376;10.874;2023-01-31T03:09:45;99808.47;;;4.75;59.88
46714;BME280;32445;51.376;10.874;2023-01-31T03:13:10;99799.91;;;4.79;59.81
46714;BME280;32445;51.376;10.874;2023-01-31T03:16:19;99807.63;;;4.79;59.77
46714;BME280;32445;51.376;10.874;2023-01-31T03:20:10;99817.91;;;4.81;59.75
46714;BME280;32445;51.376;10.874;2023-01-31T03:23:20;99829.94;;;4.87;59.62
46714;BME280;32445;51.376;10.874;2023-01-31T03:26:22;99821.38;;;4.86;59.62
46714;BME280;32445;51.376;10.874;2023-01-31T03:29:25;99825.63;;;4.87;59.14
46714;BME280;32445;51.376;10.874;2023-01-31T03:32:35;99826.50;;;4.88;59.65
46714;BME280;32445;51.376;10.874;2023-01-31T03:35:38;99828.22;;;4.85;59.28
46714;BME280;32445;51.376;10.874;2023-01-31T03:39:12;99826.50;;;4.83;59.68
46714;BME280;32445;51.376;10.874;2023-01-31T03:42:29;99830.78;;;4.85;60.03
46714;BME280;32445;51.376;10.874;2023-01-31T03:45:46;99818.78;;;4.88;59.76
46714;BME280;32445;51.376;10.874;2023-01-31T03:48:49;99818.81;;;4.89;59.58
46714;BME280;32445;51.376;10.874;2023-01-31T03:51:58;99812.81;;;4.89;59.42
46714;BME280;32445;51.376;10.874;2023-01-31T03:55:09;99809.34;;;4.91;59.32
46714;BME280;32445;51.376;10.874;2023-01-31T03:58:12;99816.22;;;4.94;59.64
46714;BME280;32445;51.376;10.874;2023-01-31T04:01:16;99811.09;;;4.89;59.20
46714;BME280;32445;51.376;10.874;2023-01-31T04:04:21;99814.50;;;4.83;59.49
46714;BME280;32445;51.376;10.874;2023-01-31T04:07:23;99815.34;;;4.81;59.30
46714;BME280;32445;51.376;10.874;2023-01-31T04:10:24;99818.78;;;4.81;59.79
46714;BME280;32445;51.376;10.874;2023-01-31T04:13:25;99820.50;;;4.81;59.56
46714;BME280;32445;51.376;10.874;2023-01-31T04:16:25;99822.22;;;4.82;59.17
46714;BME280;32445;51.376;10.874;2023-01-31T04:19:26;99810.19;;;4.81;59.34
46714;BME280;32445;51.376;10.874;2023-01-31T04:22:26;99805.06;;;4.82;59.11
46714;BME280;32445;51.376;10.874;2023-01-31T04:25:26;99805.94;;;4.83;59.56
46714;BME280;32445;51.376;10.874;2023-01-31T04:28:27;99802.47;;;4.82;59.15
46714;BME280;32445;51.376;10.874;2023-01-31T04:31:27;99820.50;;;4.81;59.38
46714;BME280;32445;51.376;10.874;2023-01-31T04:34:27;99822.22;;;4.79;58.94
46714;BME280;32445;51.376;10.874;2023-01-31T04:37:28;99823.06;;;4.76;58.66
46714;BME280;32445;51.376;10.874;2023-01-31T04:40:28;99826.47;;;4.77;58.92
46714;BME280;32445;51.376;10.874;2023-01-31T04:43:29;99815.34;;;4.76;58.38
46714;BME280;32445;51.376;10.874;2023-01-31T04:46:29;99814.50;;;4.79;58.68
46714;BME280;32445;51.376;10.874;2023-01-31T04:49:29;99811.91;;;4.77;58.68
46714;BME280;32445;51.376;10.874;2023-01-31T04:52:30;99817.91;;;4.76;58.25
46714;BME280;32445;51.376;10.874;2023-01-31T04:55:30;99816.19;;;4.77;58.09
46714;BME280;32445;51.376;10.874;2023-01-31T04:58:30;99814.50;;;4.76;57.95
46714;BME280;32445;51.376;10.874;2023-01-31T05:01:31;99822.22;;;4.77;57.80
46714;BME280;32445;51.376;10.874;2023-01-31T05:04:31;99824.78;;;4.79;57.91
46714;BME280;32445;51.376;10.874;2023-01-31T05:07:31;99824.78;;;4.80;57.86
46714;BME280;32445;51.376;10.874;2023-01-31T05:10:33;99825.63;;;4.79;57.83
46714;BME280;32445;51.376;10.874;2023-01-31T05:13:34;99829.94;;;4.80;58.04
46714;BME280;32445;51.376;10.874;2023-01-31T05:16:37;99835.06;;;4.83;57.93
46714;BME280;32445;51.376;10.874;2023-01-31T05:19:37;99828.19;;;4.78;58.11
46714;BME280;32445;51.376;10.874;2023-01-31T05:22:38;99829.03;;;4.77;58.16
46714;BME280;32445;51.376;10.874;2023-01-31T05:25:38;99832.50;;;4.77;58.60
46714;BME280;32445;51.376;10.874;2023-01-31T05:28:38;99831.63;;;4.80;58.39
46714;BME280;32445;51.376;10.874;2023-01-31T05:31:39;99841.91;;;4.78;57.94
46714;BME280;32445;51.376;10.874;2023-01-31T05:34:39;99832.47;;;4.74;58.17
46714;BME280;32445;51.376;10.874;2023-01-31T05:37:40;99828.19;;;4.73;57.71
46714;BME280;32445;51.376;10.874;2023-01-31T05:40:44;99835.03;;;4.71;58.10
46714;BME280;32445;51.376;10.874;2023-01-31T05:43:44;99841.06;;;4.70;57.67
46714;BME280;32445;51.376;10.874;2023-01-31T05:46:45;99840.16;;;4.70;58.25
46714;BME280;32445;51.376;10.874;2023-01-31T05:49:45;99854.75;;;4.69;58.35
46714;BME280;32445;51.376;10.874;2023-01-31T05:52:53;99853.03;;;4.68;58.08
46714;BME280;32445;51.376;10.874;2023-01-31T05:55:54;99857.31;;;4.67;57.95
46714;BME280;32445;51.376;10.874;2023-01-31T05:58:54;99846.16;;;4.65;58.28
46714;BME280;32445;51.376;10.874;2023-01-31T06:01:55;99850.44;;;4.68;58.03
46714;BME280;32445;51.376;10.874;2023-01-31T06:04:55;99860.75;;;4.73;58.20
46714;BME280;32445;51.376;10.874;2023-01-31T06:07:55;99857.34;;;4.75;58.26
46714;BME280;32445;51.376;10.874;2023-01-31T06:10:56;99857.34;;;4.78;58.07
46714;BME280;32445;51.376;10.874;2023-01-31T06:13:56;99865.94;;;4.82;58.20
46714;BME280;32445;51.376;10.874;2023-01-31T06:16:57;99869.34;;;4.81;58.54
46714;BME280;32445;51.376;10.874;2023-01-31T06:19:58;99860.78;;;4.79;58.27
46714;BME280;32445;51.376;10.874;2023-01-31T06:22:58;99871.94;;;4.79;58.55
46714;BME280;32445;51.376;10.874;2023-01-31T06:26:00;99863.38;;;4.79;58.13
46714;BME280;32445;51.376;10.874;2023-01-31T06:29:00;99871.94;;;4.81;58.27
46714;BME280;32445;51.376;10.874;2023-01-31T06:32:01;99877.06;;;4.78;58.77
46714;BME280;32445;51.376;10.874;2023-01-31T06:35:02;99872.78;;;4.77;58.75
46714;BME280;32445;51.376;10.874;2023-01-31T06:38:03;99877.91;;;4.78;58.32
46714;BME280;32445;51.376;10.874;2023-01-31T06:41:04;99874.50;;;4.79;58.29
46714;BME280;32445;51.376;10.874;2023-01-31T06:44:04;99874.50;;;4.79;58.80
46714;BME280;32445;51.376;10.874;2023-01-31T06:47:05;99877.91;;;4.80;58.44
46714;BME280;32445;51.376;10.874;2023-01-31T06:50:05;99874.50;;;4.81;58.94
46714;BME280;32445;51.376;10.874;2023-01-31T06:53:06;99866.78;;;4.84;58.84
46714;BME280;32445;51.376;10.874;2023-01-31T06:56:07;99867.66;;;4.88;58.47
46714;BME280;32445;51.376;10.874;2023-01-31T06:59:07;99866.81;;;4.89;58.32
46714;BME280;32445;51.376;10.874;2023-01-31T07:02:11;99864.25;;;4.90;58.46
46714;BME280;32445;51.376;10.874;2023-01-31T07:05:12;99859.13;;;4.90;58.79
46714;BME280;32445;51.376;10.874;2023-01-31T07:08:12;99857.38;;;4.89;58.64
46714;BME280;32445;51.376;10.874;2023-01-31T07:11:13;99853.09;;;4.90;58.71
46714;BME280;32445;51.376;10.874;2023-01-31T07:14:13;99852.25;;;4.92;58.54
46714;BME280;32445;51.376;10.874;2023-01-31T07:17:14;99846.25;;;4.92;58.54
46714;BME280;32445;51.376;10.874;2023-01-31T07:20:14;99848.81;;;4.92;58.50
46714;BME280;32445;51.376;10.874;2023-01-31T07:23:15;99839.38;;;4.91;58.69
46714;BME280;32445;51.376;10.874;2023-01-31T07:26:15;99838.53;;;4.92;58.23
46714;BME280;32445;51.376;10.874;2023-01-31T07:29:15;99836.81;;;4.94;58.53
46714;BME280;32445;51.376;10.874;2023-01-31T07:32:16;99832.53;;;4.94;58.15
46714;BME280;32445;51.376;10.874;2023-01-31T07:35:16;99835.13;;;4.96;57.97
46714;BME280;32445;51.376;10.874;2023-01-31T07:38:17;99814.53;;;4.96;58.30
46714;BME280;32445;51.376;10.874;2023-01-31T07:41:17;99815.38;;;4.98;58.22
46714;BME280;32445;51.376;10.874;2023-01-31T07:44:17;99804.25;;;5.00;58.00
46714;BME280;32445;51.376;10.874;2023-01-31T07:47:18;99817.09;;;5.02;57.88
46714;BME280;32445;51.376;10.874;2023-01-31T07:50:18;99821.38;;;4.98;57.65
46714;BME280;32445;51.376;10.874;2023-01-31T07:53:19;99823.09;;;4.96;57.65
46714;BME280;32445;51.376;10.874;2023-01-31T07:56:20;99805.09;;;4.93;57.75
46714;BME280;32445;51.376;10.874;2023-01-31T07:59:20;99811.09;;;4.92;57.13
46714;BME280;32445;51.376;10.874;2023-01-31T08:02:21;99807.66;;;4.93;57.24
46714;BME280;32445;51.376;10.874;2023-01-31T08:05:40;99806.78;;;4.93;57.35
46714;BME280;32445;51.376;10.874;2023-01-31T08:08:41;99801.63;;;4.87;57.05
46714;BME280;32445;51.376;10.874;2023-01-31T08:11:42;99796.50;;;4.88;57.58
46714;BME280;32445;51.376;10.874;2023-01-31T08:14:43;99789.66;;;4.89;57.49
46714;BME280;32445;51.376;10.874;2023-01-31T08:17:43;99783.63;;;4.88;57.38
46714;BME280;32445;51.376;10.874;2023-01-31T08:20:44;99785.34;;;4.84;57.53
46714;BME280;32445;51.376;10.874;2023-01-31T08:23:44;99775.06;;;4.83;57.65
46714;BME280;32445;51.376;10.874;2023-01-31T08:26:45;99780.22;;;4.84;57.75
46714;BME280;32445;51.376;10.874;2023-01-31T08:29:45;99774.19;;;4.84;57.52
46714;BME280;32445;51.376;10.874;2023-01-31T08:32:46;99773.34;;;4.82;57.88
46714;BME280;32445;51.376;10.874;2023-01-31T08:35:46;99767.34;;;4.81;58.02
46714;BME280;32445;51.376;10.874;2023-01-31T08:38:47;99777.66;;;4.86;58.23
46714;BME280;32445;51.376;10.874;2023-01-31T08:41:48;99769.94;;;4.88;58.13
46714;BME280;32445;51.376;10.874;2023-01-31T08:44:48;99769.06;;;4.89;57.67
46714;BME280;32445;51.376;10.874;2023-01-31T08:47:56;99760.47;;;4.91;58.22
46714;BME280;32445;51.376;10.874;2023-01-31T08:51:00;99758.78;;;4.96;58.41
46714;BME280;32445;51.376;10.874;2023-01-31T08:54:00;99754.47;;;5.00;57.83
46714;BME280;32445;51.376;10.874;2023-01-31T08:57:01;99765.66;;;5.00;58.14
46714;BME280;32445;51.376;10.874;2023-01-31T09:00:01;99772.53;;;5.01;58.09
46714;BME280;32445;51.376;10.874;2023-01-31T09:03:02;99771.66;;;5.02;57.80
46714;BME280;32445;51.376;10.874;2023-01-31T09:06:05;99763.06;;;5.05;58.44
46714;BME280;32445;51.376;10.874;2023-01-31T09:09:05;99760.50;;;5.10;58.11
46714;BME280;32445;51.376;10.874;2023-01-31T09:12:06;99750.19;;;5.11;58.35
46714;BME280;32445;51.376;10.874;2023-01-31T09:15:06;99759.66;;;5.11;58.24
46714;BME280;32445;51.376;10.874;2023-01-31T09:18:07;99746.78;;;5.14;58.06
46714;BME280;32445;51.376;10.874;2023-01-31T09:21:16;99745.91;;;5.18;58.41
46714;BME280;32445;51.376;10.874;2023-01-31T09:24:17;99749.38;;;5.25;57.80
46714;BME280;32445;51.376;10.874;2023-01-31T09:27:19;99738.22;;;5.27;58.34
46714;BME280;32445;51.376;10.874;2023-01-31T09:30:20;99731.34;;;5.29;58.32
46714;BME280;32445;51.376;10.874;2023-01-31T09:33:21;99722.75;;;5.35;57.85
46714;BME280;32445;51.376;10.874;2023-01-31T09:36:22;99725.31;;;5.38;58.23
46714;BME280;32445;51.376;10.874;2023-01-31T09:39:24;99720.16;;;5.40;57.80
46714;BME280;32445;51.376;10.874;2023-01-31T09:42:31;99719.31;;;5.39;58.44
46714;BME280;32445;51.376;10.874;2023-01-31T09:45:34;99714.16;;;5.39;58.14
46714;BME280;32445;51.376;10.874;2023-01-31T09:48:37;99708.13;;;5.40;58.32
46714;BME280;32445;51.376;10.874;2023-01-31T09:51:42;99728.72;;;5.38;58.38
46714;BME280;32445;51.376;10.874;2023-01-31T09:54:44;99708.16;;;5.37;58.43
46714;BME280;32445;51.376;10.874;2023-01-31T10:04:28;99719.31;;;5.34;58.69
46714;BME280;32445;51.376;10.874;2023-01-31T10:07:42;99709.88;;;5.38;58.30
46714;BME280;32445;51.376;10.874;2023-01-31T10:10:50;99697.00;;;5.40;58.88
46714;BME280;32445;51.376;10.874;2023-01-31T10:13:55;99705.56;;;5.40;58.95
46714;BME280;32445;51.376;10.874;2023-01-31T10:23:32;99667.81;;;5.39;58.69
46714;BME280;32445;51.376;10.874;2023-01-31T10:26:35;99675.53;;;5.44;59.06
46714;BME280;32445;51.376;10.874;2023-01-31T10:29:40;99662.66;;;5.47;58.79
46714;BME280;32445;51.376;10.874;2023-01-31T10:32:44;99660.06;;;5.50;58.91
46714;BME280;32445;51.376;10.874;2023-01-31T10:35:49;99660.06;;;5.51;58.64
46714;BME280;32445;51.376;10.874;2023-01-31T10:42:22;99643.72;;;5.62;59.08
46714;BME280;32445;51.376;10.874;2023-01-31T10:45:27;99632.56;;;5.67;58.77
46714;BME280;32445;51.376;10.874;2023-01-31T10:48:30;99628.22;;;5.71;58.86
46714;BME280;32445;51.376;10.874;2023-01-31T10:51:50;99625.66;;;5.72;59.10
46714;BME280;32445;51.376;10.874;2023-01-31T10:58:21;99627.31;;;5.87;58.96
46714;BME280;32445;51.376;10.874;2023-01-31T11:01:22;99624.69;;;5.94;58.06
46714;BME280;32445;51.376;10.874;2023-01-31T11:04:37;99622.97;;;5.91;58.30
46714;BME280;32445;51.376;10.874;2023-01-31T11:07:38;99622.97;;;5.99;58.55
46714;BME280;32445;51.376;10.874;2023-01-31T11:10:50;99608.38;;;5.99;58.56
46714;BME280;32445;51.376;10.874;2023-01-31T11:14:17;99604.91;;;6.03;58.51
46714;BME280;32445;51.376;10.874;2023-01-31T11:17:20;99603.16;;;6.09;58.75
46714;BME280;32445;51.376;10.874;2023-01-31T11:20:34;99586.84;;;6.10;58.63
46714;BME280;32445;51.376;10.874;2023-01-31T11:23:36;99585.06;;;6.16;58.92
46714;BME280;32445;51.376;10.874;2023-01-31T11:26:38;99571.31;;;6.20;58.89
46714;BME280;32445;51.376;10.874;2023-01-31T11:29:41;99563.56;;;6.19;58.98
46714;BME280;32445;51.376;10.874;2023-01-31T11:32:45;99565.25;;;6.21;58.65
46714;BME280;32445;51.376;10.874;2023-01-31T11:35:51;99543.81;;;6.18;58.63
46714;BME280;32445;51.376;10.874;2023-01-31T11:38:52;99542.97;;;6.20;58.83
46714;BME280;32445;51.376;10.874;2023-01-31T11:41:54;99542.88;;;6.28;58.65
46714;BME280;32445;51.376;10.874;2023-01-31T11:48:25;99513.66;;;6.29;58.98
46714;BME280;32445;51.376;10.874;2023-01-31T11:51:28;99502.44;;;6.32;58.96
46714;BME280;32445;51.376;10.874;2023-01-31T11:54:32;99497.31;;;6.33;59.33
46714;BME280;32445;51.376;10.874;2023-01-31T11:57:35;99477.53;;;6.32;58.99
46714;BME280;32445;51.376;10.874;2023-01-31T12:00:36;99473.19;;;6.37;58.99
46714;BME280;32445;51.376;10.874;2023-01-31T12:03:45;99462.88;;;6.40;59.49
46714;BME280;32445;51.376;10.874;2023-01-31T12:06:58;99451.69;;;6.38;59.15
46714;BME280;32445;51.376;10.874;2023-01-31T12:10:00;99440.53;;;6.39;59.54
46714;BME280;32445;51.376;10.874;2023-01-31T12:13:12;99442.25;;;6.40;59.32
46714;BME280;32445;51.376;10.874;2023-01-31T12:16:13;99450.78;;;6.43;58.94
46714;BME280;32445;51.376;10.874;2023-01-31T12:19:31;99446.50;;;6.41;59.29
46714;BME280;32445;51.376;10.874;2023-01-31T12:22:43;99447.31;;;6.47;59.20
46714;BME280;32445;51.376;10.874;2023-01-31T12:25:55;99428.38;;;6.51;58.91
46714;BME280;32445;51.376;10.874;2023-01-31T12:35:37;99437.84;;;6.47;58.43
46714;BME280;32445;51.376;10.874;2023-01-31T12:45:17;99403.69;;;6.28;58.29
46714;BME280;32445;51.376;10.874;2023-01-31T12:48:34;99410.59;;;6.21;58.19
46714;BME280;32445;51.376;10.874;2023-01-31T12:55:35;99393.47;;;6.16;58.72
46714;BME280;32445;51.376;10.874;2023-01-31T13:01:59;99421.03;;;6.12;58.26
46714;BME280;32445;51.376;10.874;2023-01-31T13:05:30;99396.16;;;6.08;58.69
46714;BME280;32445;51.376;10.874;2023-01-31T13:08:34;99387.56;;;6.06;58.98
46714;BME280;32445;51.376;10.874;2023-01-31T13:11:40;99367.00;;;6.00;59.14
46714;BME280;32445;51.376;10.874;2023-01-31T13:14:47;99379.06;;;5.99;59.80
46714;BME280;32445;51.376;10.874;2023-01-31T13:17:53;99370.44;;;5.99;60.00
46714;BME280;32445;51.376;10.874;2023-01-31T13:21:01;99374.75;;;5.95;60.25
46714;BME280;32445;51.376;10.874;2023-01-31T13:24:14;99358.44;;;5.96;59.95
46714;BME280;32445;51.376;10.874;2023-01-31T13:27:23;99376.47;;;5.96;60.50
46714;BME280;32445;51.376;10.874;2023-01-31T13:30:51;99373.09;;;5.89;60.69
46714;BME280;32445;51.376;10.874;2023-01-31T13:34:12;99364.53;;;5.89;60.65
46714;BME280;32445;51.376;10.874;2023-01-31T13:37:15;99373.13;;;5.86;60.91
46714;BME280;32445;51.376;10.874;2023-01-31T13:40:24;99383.41;;;5.89;60.86
46714;BME280;32445;51.376;10.874;2023-01-31T13:43:25;99368.78;;;5.90;61.05
46714;BME280;32445;51.376;10.874;2023-01-31T13:46:35;99358.53;;;5.84;60.94
46714;BME280;32445;51.376;10.874;2023-01-31T13:52:47;99354.25;;;5.83;61.03
46714;BME280;32445;51.376;10.874;2023-01-31T13:55:50;99354.25;;;5.83;61.11
46714;BME280;32445;51.376;10.874;2023-01-31T13:58:53;99370.59;;;5.82;61.27
46714;BME280;32445;51.376;10.874;2023-01-31T14:01:58;99368.03;;;5.82;61.17
46714;BME280;32445;51.376;10.874;2023-01-31T14:05:48;99367.16;;;5.81;61.36
46714;BME280;32445;51.376;10.874;2023-01-31T14:11:49;99364.53;;;5.87;61.22
46714;BME280;32445;51.376;10.874;2023-01-31T14:14:54;99368.84;;;5.85;61.34
46714;BME280;32445;51.376;10.874;2023-01-31T14:17:57;99359.38;;;5.89;61.26
46714;BME280;32445;51.376;10.874;2023-01-31T14:30:55;99344.69;;;5.96;61.22
46714;BME280;32445;51.376;10.874;2023-01-31T14:33:56;99360.16;;;5.97;60.98
46714;BME280;32445;51.376;10.874;2023-01-31T14:44:23;99355.88;;;5.95;61.12
46714;BME280;32445;51.376;10.874;2023-01-31T14:51:06;99349.91;;;5.89;61.44
46714;BME280;32445;51.376;10.874;2023-01-31T14:57:29;99343.00;;;5.95;61.29
46714;BME280;32445;51.376;10.874;2023-01-31T15:00:34;99353.31;;;5.95;61.47
46714;BME280;32445;51.376;10.874;2023-01-31T15:03:51;99358.44;;;5.96;61.53
46714;BME280;32445;51.376;10.874;2023-01-31T15:06:54;99356.72;;;5.97;61.74
46714;BME280;32445;51.376;10.874;2023-01-31T15:09:55;99359.31;;;5.95;61.72
46714;BME280;32445;51.376;10.874;2023-01-31T15:12:57;99357.59;;;5.93;61.67
46714;BME280;32445;51.376;10.874;2023-01-31T15:16:04;99352.41;;;5.96;61.56
46714;BME280;32445;51.376;10.874;2023-01-31T15:19:19;99358.47;;;5.95;61.82
46714;BME280;32445;51.376;10.874;2023-01-31T15:22:23;99355.00;;;5.94;61.54
46714;BME280;32445;51.376;10.874;2023-01-31T15:25:31;99352.44;;;5.94;61.58
46714;BME280;32445;51.376;10.874;2023-01-31T15:28:35;99354.16;;;5.95;61.47
46714;BME280;32445;51.376;10.874;2023-01-31T15:31:40;99352.41;;;5.96;61.40
46714;BME280;32445;51.376;10.874;2023-01-31T15:34:50;99356.75;;;5.92;61.41
46714;BME280;32445;51.376;10.874;2023-01-31T15:38:00;99351.59;;;5.92;61.42
46714;BME280;32445;51.376;10.874;2023-01-31T15:41:21;99352.44;;;5.94;61.30
46714;BME280;32445;51.376;10.874;2023-01-31T15:44:26;99346.41;;;5.95;61.53
46714;BME280;32445;51.376;10.874;2023-01-31T15:47:28;99333.56;;;5.94;61.29
46714;BME280;32445;51.376;10.874;2023-01-31T15:50:31;99338.72;;;5.94;61.27
46714;BME280;32445;51.376;10.874;2023-01-31T15:53:31;99344.75;;;5.91;61.17
46714;BME280;32445;51.376;10.874;2023-01-31T15:56:38;99349.94;;;5.86;61.12
46714;BME280;32445;51.376;10.874;2023-01-31T15:59:39;99341.34;;;5.87;61.09
46714;BME280;32445;51.376;10.874;2023-01-31T16:02:45;99345.66;;;5.84;61.57
46714;BME280;32445;51.376;10.874;2023-01-31T16:05:48;99366.28;;;5.82;61.50
46714;BME280;32445;51.376;10.874;2023-01-31T16:08:52;99356.88;;;5.80;61.55
46714;BME280;32445;51.376;10.874;2023-01-31T16:11:55;99359.47;;;5.77;61.75
46714;BME280;32445;51.376;10.874;2023-01-31T16:15:01;99369.81;;;5.74;61.74
46714;BME280;32445;51.376;10.874;2023-01-31T16:18:03;99371.50;;;5.78;61.68
46714;BME280;32445;51.376;10.874;2023-01-31T16:24:28;99362.88;;;5.77;61.68
46714;BME280;32445;51.376;10.874;2023-01-31T16:27:37;99375.78;;;5.80;61.70
46714;BME280;32445;51.376;10.874;2023-01-31T16:30:41;99371.50;;;5.78;61.92
46714;BME280;32445;51.376;10.874;2023-01-31T16:33:51;99369.78;;;5.75;62.14
46714;BME280;32445;51.376;10.874;2023-01-31T16:36:56;99362.03;;;5.78;61.98
46714;BME280;32445;51.376;10.874;2023-01-31T16:40:05;99358.63;;;5.78;61.81
46714;BME280;32445;51.376;10.874;2023-01-31T16:43:23;99364.63;;;5.77;62.07
46714;BME280;32445;51.376;10.874;2023-01-31T16:46:40;99367.22;;;5.75;62.01
46714;BME280;32445;51.376;10.874;2023-01-31T16:49:43;99362.88;;;5.77;62.14
46714;BME280;32445;51.376;10.874;2023-01-31T16:52:51;99367.19;;;5.77;61.84
46714;BME280;32445;51.376;10.874;2023-01-31T17:02:38;99373.25;;;5.71;62.59
46714;BME280;32445;51.376;10.874;2023-01-31T17:05:41;99371.56;;;5.68;62.44
46714;BME280;32445;51.376;10.874;2023-01-31T17:08:42;99388.75;;;5.68;62.75
46714;BME280;32445;51.376;10.874;2023-01-31T17:11:43;99372.44;;;5.64;62.94
46714;BME280;32445;51.376;10.874;2023-01-31T17:14:46;99357.00;;;5.63;63.07
46714;BME280;32445;51.376;10.874;2023-01-31T17:17:46;99349.25;;;5.64;62.97
46714;BME280;32445;51.376;10.874;2023-01-31T17:20:47;99355.31;;;5.59;62.92
46714;BME280;32445;51.376;10.874;2023-01-31T17:23:49;99352.75;;;5.59;63.42
46714;BME280;32445;51.376;10.874;2023-01-31T17:26:50;99358.75;;;5.59;63.05
46714;BME280;32445;51.376;10.874;2023-01-31T17:29:50;99357.88;;;5.59;63.32
46714;BME280;32445;51.376;10.874;2023-01-31T17:32:51;99348.47;;;5.59;63.21
46714;BME280;32445;51.376;10.874;2023-01-31T17:35:52;99357.03;;;5.60;63.30
46714;BME280;32445;51.376;10.874;2023-01-31T17:38:52;99357.00;;;5.63;63.07
46714;BME280;32445;51.376;10.874;2023-01-31T17:41:53;99350.97;;;5.67;63.06
46714;BME280;32445;51.376;10.874;2023-01-31T17:44:53;99346.69;;;5.67;62.92
46714;BME280;32445;51.376;10.874;2023-01-31T17:47:56;99344.94;;;5.69;62.81
46714;BME280;32445;51.376;10.874;2023-01-31T17:50:57;99359.53;;;5.70;62.93
46714;BME280;32445;51.376;10.874;2023-01-31T17:54:01;99360.44;;;5.66;63.27
46714;BME280;32445;51.376;10.874;2023-01-31T17:57:08;99366.47;;;5.61;63.28
46714;BME280;32445;51.376;10.874;2023-01-31T18:00:14;99348.44;;;5.61;63.86
46714;BME280;32445;51.376;10.874;2023-01-31T18:03:22;99347.59;;;5.59;63.97
46714;BME280;32445;51.376;10.874;2023-01-31T18:06:23;99354.47;;;5.60;64.32
46714;BME280;32445;51.376;10.874;2023-01-31T18:09:24;99369.88;;;5.64;63.90